sensor_id;sensor_type;location;lat;lon;timestamp;pressure;altitude;pressure_sealevel;temperature;humidity
6194;BME280;3130;41.564;23.280;2022-10-01T00:00:25;99134.84;;;17.80;83.19
6194;BME280;3130;41.564;23.280;2022-10-01T00:02:52;99257.13;;;18.56;83.09
6194;BME280;3130;41.564;23.280;2022-10-01T00:05:20;99248.94;;;18.60;82.68
6194;BME280;3130;41.564;23.280;2022-10-01T00:07:48;99177.09;;;18.31;82.34
6194;BME280;3130;41.564;23.280;2022-10-01T00:10:15;99231.44;;;18.72;82.05
6194;BME280;3130;41.564;23.280;2022-10-01T00:12:46;99234.34;;;18.78;81.62
6194;BME280;3130;41.564;23.280;2022-10-01T00:15:15;99235.03;;;18.80;81.47
6194;BME280;3130;41.564;23.280;2022-10-01T00:17:47;99155.81;;;18.37;81.53
6194;BME280;3130;41.564;23.280;2022-10-01T00:20:14;99227.06;;;18.72;81.77
6194;BME280;3130;41.564;23.280;2022-10-01T00:22:42;99181.78;;;18.46;81.72
6194;BME280;3130;41.564;23.280;2022-10-01T00:25:10;99221.44;;;18.48;82.51
6194;BME280;3130;41.564;23.280;2022-10-01T00:27:37;99241.41;;;18.57;82.52
6194;BME280;3130;41.564;23.280;2022-10-01T00:30:06;99239.66;;;18.67;82.15
6194;BME280;3130;41.564;23.280;2022-10-01T00:32:33;99118.13;;;18.03;82.01
6194;BME280;3130;41.564;23.280;2022-10-01T00:35:02;99187.22;;;18.34;82.23
6194;BME280;3130;41.564;23.280;2022-10-01T00:37:34;99221.69;;;18.45;83.25
6194;BME280;3130;41.564;23.280;2022-10-01T00:40:03;99227.59;;;18.47;83.00
6194;BME280;3130;41.564;23.280;2022-10-01T00:42:31;99238.25;;;18.54;83.15
6194;BME280;3130;41.564;23.280;2022-10-01T00:44:58;99236.91;;;18.59;83.04
6194;BME280;3130;41.564;23.280;2022-10-01T00:47:31;99160.84;;;17.99;82.45
6194;BME280;3130;41.564;23.280;2022-10-01T00:50:06;99246.03;;;18.44;82.65
6194;BME280;3130;41.564;23.280;2022-10-01T00:52:38;99234.41;;;18.39;82.67
6194;BME280;3130;41.564;23.280;2022-10-01T00:55:09;99236.69;;;18.32;83.30
6194;BME280;3130;41.564;23.280;2022-10-01T00:57:38;99237.78;;;18.30;83.55
6194;BME280;3130;41.564;23.280;2022-10-01T01:00:08;99228.00;;;18.22;83.58
6194;BME280;3130;41.564;23.280;2022-10-01T01:02:37;99218.72;;;18.20;83.74
6194;BME280;3130;41.564;23.280;2022-10-01T01:05:07;99236.41;;;18.26;84.16
6194;BME280;3130;41.564;23.280;2022-10-01T01:07:38;99217.31;;;18.07;84.41
6194;BME280;3130;41.564;23.280;2022-10-01T01:10:08;99196.75;;;17.94;84.21
6194;BME280;3130;41.564;23.280;2022-10-01T01:12:56;99216.09;;;18.11;84.00
6194;BME280;3130;41.564;23.280;2022-10-01T01:15:34;99241.31;;;18.29;84.00
6194;BME280;3130;41.564;23.280;2022-10-01T01:18:06;99242.19;;;18.18;84.65
6194;BME280;3130;41.564;23.280;2022-10-01T01:20:49;99253.69;;;18.16;85.20
6194;BME280;3130;41.564;23.280;2022-10-01T01:23:47;99250.66;;;18.11;85.49
6194;BME280;3130;41.564;23.280;2022-10-01T01:26:25;99262.97;;;18.09;85.64
6194;BME280;3130;41.564;23.280;2022-10-01T01:29:01;99259.38;;;18.10;85.58
6194;BME280;3130;41.564;23.280;2022-10-01T01:31:34;99128.22;;;17.37;85.36
6194;BME280;3130;41.564;23.280;2022-10-01T01:34:06;99267.97;;;18.31;85.08
6194;BME280;3130;41.564;23.280;2022-10-01T01:36:40;99257.78;;;18.39;84.93
6194;BME280;3130;41.564;23.280;2022-10-01T01:39:12;99254.91;;;18.42;84.85
6194;BME280;3130;41.564;23.280;2022-10-01T01:41:46;99179.56;;;18.03;84.52
6194;BME280;3130;41.564;23.280;2022-10-01T01:44:20;99229.88;;;18.31;84.45
6194;BME280;3130;41.564;23.280;2022-10-01T01:46:50;99236.84;;;18.40;84.43
6194;BME280;3130;41.564;23.280;2022-10-01T01:49:21;99258.09;;;18.55;84.38
6194;BME280;3130;41.564;23.280;2022-10-01T01:51:53;99271.78;;;18.66;84.25
6194;BME280;3130;41.564;23.280;2022-10-01T01:54:21;99263.44;;;18.72;83.90
6194;BME280;3130;41.564;23.280;2022-10-01T01:56:50;99233.88;;;18.64;83.40
6194;BME280;3130;41.564;23.280;2022-10-01T01:59:20;99194.09;;;18.44;83.31
6194;BME280;3130;41.564;23.280;2022-10-01T02:01:47;99263.09;;;18.86;83.03
6194;BME280;3130;41.564;23.280;2022-10-01T02:04:19;99270.06;;;18.95;82.73
6194;BME280;3130;41.564;23.280;2022-10-01T02:09:51;99277.59;;;18.98;82.27
6194;BME280;3130;41.564;23.280;2022-10-01T02:12:28;99275.53;;;19.02;82.25
6194;BME280;3130;41.564;23.280;2022-10-01T02:15:07;99262.81;;;18.80;82.50
6194;BME280;3130;41.564;23.280;2022-10-01T02:17:40;99136.78;;;17.88;82.91
6194;BME280;3130;41.564;23.280;2022-10-01T02:20:19;99253.31;;;18.60;83.63
6194;BME280;3130;41.564;23.280;2022-10-01T02:22:54;99196.53;;;18.27;83.60
6194;BME280;3130;41.564;23.280;2022-10-01T02:25:24;99270.72;;;18.78;83.89
6194;BME280;3130;41.564;23.280;2022-10-01T02:27:55;99242.78;;;18.61;83.43
6194;BME280;3130;41.564;23.280;2022-10-01T02:30:29;99238.81;;;18.57;83.31
6194;BME280;3130;41.564;23.280;2022-10-01T02:32:59;99260.44;;;18.67;83.31
6194;BME280;3130;41.564;23.280;2022-10-01T02:35:29;99299.16;;;18.70;83.32
6194;BME280;3130;41.564;23.280;2022-10-01T02:37:58;99287.22;;;18.58;84.15
6194;BME280;3130;41.564;23.280;2022-10-01T02:40:31;99284.72;;;18.47;84.47
6194;BME280;3130;41.564;23.280;2022-10-01T02:43:04;99225.38;;;18.13;84.48
6194;BME280;3130;41.564;23.280;2022-10-01T02:45:36;99300.84;;;18.51;84.98
6194;BME280;3130;41.564;23.280;2022-10-01T02:48:07;99181.69;;;17.79;85.51
6194;BME280;3130;41.564;23.280;2022-10-01T02:50:39;99304.13;;;18.43;86.05
6194;BME280;3130;41.564;23.280;2022-10-01T02:53:11;99291.50;;;18.29;87.02
6194;BME280;3130;41.564;23.280;2022-10-01T02:55:44;99264.84;;;18.07;87.02
6194;BME280;3130;41.564;23.280;2022-10-01T02:58:13;99306.56;;;18.35;87.07
6194;BME280;3130;41.564;23.280;2022-10-01T03:00:40;99274.00;;;18.11;87.66
6194;BME280;3130;41.564;23.280;2022-10-01T03:03:07;99179.44;;;17.44;87.91
6194;BME280;3130;41.564;23.280;2022-10-01T03:05:34;99313.94;;;18.19;88.32
6194;BME280;3130;41.564;23.280;2022-10-01T03:08:01;99323.59;;;18.28;88.24
6194;BME280;3130;41.564;23.280;2022-10-01T03:10:29;99322.91;;;18.26;88.19
6194;BME280;3130;41.564;23.280;2022-10-01T03:12:56;99221.50;;;17.68;88.16
6194;BME280;3130;41.564;23.280;2022-10-01T03:15:24;99329.09;;;18.35;88.26
6194;BME280;3130;41.564;23.280;2022-10-01T03:17:53;99304.25;;;18.42;87.60
6194;BME280;3130;41.564;23.280;2022-10-01T03:20:21;99304.81;;;18.45;87.29
6194;BME280;3130;41.564;23.280;2022-10-01T03:22:48;99198.25;;;17.87;86.92
6194;BME280;3130;41.564;23.280;2022-10-01T03:25:15;99274.31;;;18.38;87.04
6194;BME280;3130;41.564;23.280;2022-10-01T03:27:43;99252.94;;;18.25;88.03
6194;BME280;3130;41.564;23.280;2022-10-01T03:30:11;99258.84;;;18.36;88.22
6194;BME280;3130;41.564;23.280;2022-10-01T03:32:38;99272.69;;;18.46;87.79
6194;BME280;3130;41.564;23.280;2022-10-01T03:35:08;99302.41;;;18.53;87.36
6194;BME280;3130;41.564;23.280;2022-10-01T03:37:35;99322.22;;;18.64;86.23
6194;BME280;3130;41.564;23.280;2022-10-01T03:40:02;99305.31;;;18.69;84.92
6194;BME280;3130;41.564;23.280;2022-10-01T03:42:30;99287.50;;;18.65;84.68
6194;BME280;3130;41.564;23.280;2022-10-01T03:44:57;99278.59;;;18.58;85.20
6194;BME280;3130;41.564;23.280;2022-10-01T03:47:24;99236.66;;;18.23;85.25
6194;BME280;3130;41.564;23.280;2022-10-01T03:49:52;99246.00;;;18.35;84.57
6194;BME280;3130;41.564;23.280;2022-10-01T03:52:20;99271.78;;;18.57;84.09
6194;BME280;3130;41.564;23.280;2022-10-01T03:54:47;99339.16;;;18.88;83.09
6194;BME280;3130;41.564;23.280;2022-10-01T03:57:14;99232.50;;;18.20;82.23
6194;BME280;3130;41.564;23.280;2022-10-01T03:59:41;99345.69;;;18.92;82.00
6194;BME280;3130;41.564;23.280;2022-10-01T04:02:09;99291.69;;;18.47;83.34
6194;BME280;3130;41.564;23.280;2022-10-01T04:04:36;99306.22;;;18.59;82.87
6194;BME280;3130;41.564;23.280;2022-10-01T04:07:03;99319.94;;;18.70;83.31
6194;BME280;3130;41.564;23.280;2022-10-01T04:09:31;99315.56;;;18.71;83.28
6194;BME280;3130;41.564;23.280;2022-10-01T04:11:58;99230.28;;;18.27;83.48
6194;BME280;3130;41.564;23.280;2022-10-01T04:14:25;99306.00;;;18.90;83.10
6194;BME280;3130;41.564;23.280;2022-10-01T04:16:53;99305.50;;;18.96;82.71
6194;BME280;3130;41.564;23.280;2022-10-01T04:19:20;99241.41;;;18.57;82.42
6194;BME280;3130;41.564;23.280;2022-10-01T04:21:47;99319.88;;;19.00;82.23
6194;BME280;3130;41.564;23.280;2022-10-01T04:24:14;99232.91;;;18.55;81.51
6194;BME280;3130;41.564;23.280;2022-10-01T04:26:42;99308.94;;;19.06;81.40
6194;BME280;3130;41.564;23.280;2022-10-01T04:29:10;99300.63;;;19.12;81.35
6194;BME280;3130;41.564;23.280;2022-10-01T04:31:37;99298.56;;;19.16;81.12
6194;BME280;3130;41.564;23.280;2022-10-01T04:34:04;99273.06;;;19.00;80.41
6194;BME280;3130;41.564;23.280;2022-10-01T04:36:32;99274.84;;;19.00;80.59
6194;BME280;3130;41.564;23.280;2022-10-01T04:38:59;99297.91;;;19.14;81.09
6194;BME280;3130;41.564;23.280;2022-10-01T04:41:26;99201.09;;;18.53;80.99
6194;BME280;3130;41.564;23.280;2022-10-01T04:43:56;99298.56;;;19.16;80.77
6194;BME280;3130;41.564;23.280;2022-10-01T04:46:24;99317.34;;;19.28;80.60
6194;BME280;3130;41.564;23.280;2022-10-01T04:48:51;99303.59;;;19.08;82.48
6194;BME280;3130;41.564;23.280;2022-10-01T04:51:18;99285.38;;;18.89;83.84
6194;BME280;3130;41.564;23.280;2022-10-01T04:53:45;99270.88;;;18.86;84.25
6194;BME280;3130;41.564;23.280;2022-10-01T04:56:12;99289.22;;;18.94;84.18
6194;BME280;3130;41.564;23.280;2022-10-01T04:58:39;99297.97;;;19.03;83.92
6194;BME280;3130;41.564;23.280;2022-10-01T05:01:08;99239.09;;;18.64;83.38
6194;BME280;3130;41.564;23.280;2022-10-01T05:03:35;99305.78;;;19.03;83.38
6194;BME280;3130;41.564;23.280;2022-10-01T05:06:02;99301.78;;;18.99;83.68
6194;BME280;3130;41.564;23.280;2022-10-01T05:08:29;99278.53;;;18.97;84.73
6194;BME280;3130;41.564;23.280;2022-10-01T05:10:58;99234.19;;;18.70;84.64
6194;BME280;3130;41.564;23.280;2022-10-01T05:13:25;99310.97;;;19.03;85.26
6194;BME280;3130;41.564;23.280;2022-10-01T05:15:56;99286.31;;;18.78;85.89
6194;BME280;3130;41.564;23.280;2022-10-01T05:18:25;99316.97;;;18.84;86.29
6194;BME280;3130;41.564;23.280;2022-10-01T05:20:52;99294.47;;;18.64;86.49
6194;BME280;3130;41.564;23.280;2022-10-01T05:23:19;99313.69;;;18.82;86.50
6194;BME280;3130;41.564;23.280;2022-10-01T05:25:46;99273.16;;;18.61;85.96
6194;BME280;3130;41.564;23.280;2022-10-01T05:28:14;99318.50;;;18.96;85.67
6194;BME280;3130;41.564;23.280;2022-10-01T05:30:41;99284.41;;;18.90;85.23
6194;BME280;3130;41.564;23.280;2022-10-01T05:33:08;99257.47;;;18.91;84.58
6194;BME280;3130;41.564;23.280;2022-10-01T05:35:37;99330.19;;;19.49;84.29
6194;BME280;3130;41.564;23.280;2022-10-01T05:38:06;99269.97;;;19.25;82.81
6194;BME280;3130;41.564;23.280;2022-10-01T05:40:33;99341.72;;;19.75;82.64
6194;BME280;3130;41.564;23.280;2022-10-01T05:43:00;99346.22;;;19.92;82.12
6194;BME280;3130;41.564;23.280;2022-10-01T05:45:28;99338.94;;;20.05;80.49
6194;BME280;3130;41.564;23.280;2022-10-01T05:47:56;99354.00;;;20.20;79.13
6194;BME280;3130;41.564;23.280;2022-10-01T05:50:23;99352.84;;;20.32;78.12
6194;BME280;3130;41.564;23.280;2022-10-01T05:52:53;99349.94;;;20.44;77.44
6194;BME280;3130;41.564;23.280;2022-10-01T05:55:21;99327.25;;;20.54;77.60
6194;BME280;3130;41.564;23.280;2022-10-01T05:57:56;99344.94;;;20.60;78.40
6194;BME280;3130;41.564;23.280;2022-10-01T06:00:24;99352.75;;;20.60;78.96
6194;BME280;3130;41.564;23.280;2022-10-01T06:02:52;99357.97;;;20.60;79.34
6194;BME280;3130;41.564;23.280;2022-10-01T06:05:20;99369.78;;;20.55;79.75
6194;BME280;3130;41.564;23.280;2022-10-01T06:07:47;99312.75;;;20.06;80.47
6194;BME280;3130;41.564;23.280;2022-10-01T06:10:16;99336.91;;;19.99;81.37
6194;BME280;3130;41.564;23.280;2022-10-01T06:12:43;99341.69;;;19.84;82.65
6194;BME280;3130;41.564;23.280;2022-10-01T06:15:11;99375.38;;;19.86;82.77
6194;BME280;3130;41.564;23.280;2022-10-01T06:17:39;99380.44;;;19.68;83.39
6194;BME280;3130;41.564;23.280;2022-10-01T06:20:10;99401.97;;;19.70;83.63
6194;BME280;3130;41.564;23.280;2022-10-01T06:22:39;99421.72;;;19.73;83.62
6194;BME280;3130;41.564;23.280;2022-10-01T06:25:08;99431.53;;;19.60;84.49
6194;BME280;3130;41.564;23.280;2022-10-01T06:27:37;99454.41;;;19.56;84.99
6194;BME280;3130;41.564;23.280;2022-10-01T06:30:05;99384.00;;;19.20;84.36
6194;BME280;3130;41.564;23.280;2022-10-01T06:32:33;99427.16;;;19.51;84.64
6194;BME280;3130;41.564;23.280;2022-10-01T06:35:00;99439.63;;;19.57;84.81
6194;BME280;3130;41.564;23.280;2022-10-01T06:37:27;99428.28;;;19.67;85.34
6194;BME280;3130;41.564;23.280;2022-10-01T06:39:54;99416.50;;;19.73;85.59
6194;BME280;3130;41.564;23.280;2022-10-01T06:42:21;99422.25;;;19.67;84.98
6194;BME280;3130;41.564;23.280;2022-10-01T06:44:50;99415.25;;;19.58;85.68
6194;BME280;3130;41.564;23.280;2022-10-01T06:47:17;99437.44;;;19.81;85.49
6194;BME280;3130;41.564;23.280;2022-10-01T06:49:44;99415.25;;;19.77;85.81
6194;BME280;3130;41.564;23.280;2022-10-01T06:52:11;99406.22;;;19.71;86.67
6194;BME280;3130;41.564;23.280;2022-10-01T06:54:55;99424.03;;;20.04;85.64
6194;BME280;3130;41.564;23.280;2022-10-01T06:57:24;99413.59;;;20.23;85.03
6194;BME280;3130;41.564;23.280;2022-10-01T06:59:53;99403.03;;;20.34;83.57
6194;BME280;3130;41.564;23.280;2022-10-01T07:02:22;99371.28;;;20.12;83.64
6194;BME280;3130;41.564;23.280;2022-10-01T07:04:54;99440.50;;;20.69;80.51
6194;BME280;3130;41.564;23.280;2022-10-01T07:07:23;99404.44;;;20.65;78.98
6194;BME280;3130;41.564;23.280;2022-10-01T07:09:50;99340.75;;;20.40;78.46
6194;BME280;3130;41.564;23.280;2022-10-01T07:12:17;99304.81;;;20.44;78.28
6194;BME280;3130;41.564;23.280;2022-10-01T07:14:45;99381.03;;;21.19;77.77
6194;BME280;3130;41.564;23.280;2022-10-01T07:17:13;99402.06;;;21.34;76.52
6194;BME280;3130;41.564;23.280;2022-10-01T07:19:40;99398.50;;;21.35;76.48
6194;BME280;3130;41.564;23.280;2022-10-01T07:22:08;99412.56;;;21.25;76.35
6194;BME280;3130;41.564;23.280;2022-10-01T07:24:35;99434.13;;;21.27;75.89
6194;BME280;3130;41.564;23.280;2022-10-01T07:27:02;99410.25;;;21.22;75.66
6194;BME280;3130;41.564;23.280;2022-10-01T07:29:30;99399.19;;;21.11;75.27
6194;BME280;3130;41.564;23.280;2022-10-01T07:31:58;99450.22;;;21.23;75.16
6194;BME280;3130;41.564;23.280;2022-10-01T07:34:28;99419.09;;;20.75;76.17
6194;BME280;3130;41.564;23.280;2022-10-01T07:36:56;99419.41;;;20.63;77.50
6194;BME280;3130;41.564;23.280;2022-10-01T07:39:23;99450.25;;;20.67;77.70
6194;BME280;3130;41.564;23.280;2022-10-01T07:41:50;99452.47;;;20.72;78.36
6194;BME280;3130;41.564;23.280;2022-10-01T07:44:18;99405.47;;;20.45;77.30
6194;BME280;3130;41.564;23.280;2022-10-01T07:46:45;99468.09;;;20.81;77.59
6194;BME280;3130;41.564;23.280;2022-10-01T07:49:13;99421.81;;;20.37;76.99
6194;BME280;3130;41.564;23.280;2022-10-01T07:51:42;99475.75;;;20.73;77.98
6194;BME280;3130;41.564;23.280;2022-10-01T07:54:10;99473.69;;;20.86;77.47
6194;BME280;3130;41.564;23.280;2022-10-01T07:56:38;99487.25;;;20.99;76.06
6194;BME280;3130;41.564;23.280;2022-10-01T07:59:05;99502.69;;;21.20;75.25
6194;BME280;3130;41.564;23.280;2022-10-01T08:01:35;99497.78;;;21.70;74.48
6194;BME280;3130;41.564;23.280;2022-10-01T08:04:04;99407.91;;;21.46;72.16
6194;BME280;3130;41.564;23.280;2022-10-01T08:06:53;99508.75;;;22.09;72.06
6194;BME280;3130;41.564;23.280;2022-10-01T08:09:21;99483.53;;;22.00;71.49
6194;BME280;3130;41.564;23.280;2022-10-01T08:11:49;99362.41;;;21.31;70.98
6194;BME280;3130;41.564;23.280;2022-10-01T08:14:16;99480.84;;;22.09;71.50
6194;BME280;3130;41.564;23.280;2022-10-01T08:16:44;99456.16;;;21.86;70.74
6194;BME280;3130;41.564;23.280;2022-10-01T08:19:12;99406.94;;;21.47;72.01
6194;BME280;3130;41.564;23.280;2022-10-01T08:21:40;99383.63;;;21.19;74.10
6194;BME280;3130;41.564;23.280;2022-10-01T08:24:09;99351.13;;;20.86;75.39
6194;BME280;3130;41.564;23.280;2022-10-01T08:26:37;99350.34;;;20.40;77.34
6194;BME280;3130;41.564;23.280;2022-10-01T08:29:04;99469.94;;;21.08;77.91
6194;BME280;3130;41.564;23.280;2022-10-01T08:31:32;99396.13;;;20.52;78.50
6194;BME280;3130;41.564;23.280;2022-10-01T08:36:48;99467.88;;;21.02;78.75
6194;BME280;3130;41.564;23.280;2022-10-01T08:39:18;99441.31;;;21.16;78.72
6194;BME280;3130;41.564;23.280;2022-10-01T08:41:51;99394.97;;;21.00;79.58
6194;BME280;3130;41.564;23.280;2022-10-01T08:44:25;99374.63;;;20.77;80.18
6194;BME280;3130;41.564;23.280;2022-10-01T08:46:58;99413.59;;;20.88;81.01
6194;BME280;3130;41.564;23.280;2022-10-01T08:49:29;99400.69;;;20.86;82.19
6194;BME280;3130;41.564;23.280;2022-10-01T08:52:03;99437.22;;;21.13;81.65
6194;BME280;3130;41.564;23.280;2022-10-01T08:54:37;99493.75;;;21.49;82.12
6194;BME280;3130;41.564;23.280;2022-10-01T08:57:10;99439.09;;;21.21;83.30
6194;BME280;3130;41.564;23.280;2022-10-01T08:59:45;99433.53;;;21.06;80.63
6194;BME280;3130;41.564;23.280;2022-10-01T09:02:22;99486.53;;;21.33;80.02
6194;BME280;3130;41.564;23.280;2022-10-01T09:04:53;99451.91;;;21.14;82.25
6194;BME280;3130;41.564;23.280;2022-10-01T09:07:35;99488.28;;;21.42;81.91
6194;BME280;3130;41.564;23.280;2022-10-01T09:10:20;99462.28;;;21.50;81.89
6194;BME280;3130;41.564;23.280;2022-10-01T09:12:58;99410.69;;;21.18;81.46
6194;BME280;3130;41.564;23.280;2022-10-01T09:15:34;99464.19;;;21.48;81.44
6194;BME280;3130;41.564;23.280;2022-10-01T09:18:13;99471.75;;;21.51;81.74
6194;BME280;3130;41.564;23.280;2022-10-01T09:20:46;99464.88;;;21.50;82.48
6194;BME280;3130;41.564;23.280;2022-10-01T09:23:25;99427.25;;;21.26;81.53
6194;BME280;3130;41.564;23.280;2022-10-01T09:25:55;99528.31;;;21.87;81.04
6194;BME280;3130;41.564;23.280;2022-10-01T09:28:26;99440.63;;;21.40;80.76
6194;BME280;3130;41.564;23.280;2022-10-01T09:30:57;99486.13;;;21.82;80.85
6194;BME280;3130;41.564;23.280;2022-10-01T09:33:30;99493.31;;;21.98;81.43
6194;BME280;3130;41.564;23.280;2022-10-01T09:36:05;99469.44;;;21.93;81.41
6194;BME280;3130;41.564;23.280;2022-10-01T09:38:39;99505.44;;;22.34;81.00
6194;BME280;3130;41.564;23.280;2022-10-01T09:41:10;99440.41;;;22.13;79.99
6194;BME280;3130;41.564;23.280;2022-10-01T09:43:41;99498.44;;;22.85;78.94
6194;BME280;3130;41.564;23.280;2022-10-01T09:46:12;99501.28;;;23.17;78.36
6194;BME280;3130;41.564;23.280;2022-10-01T09:48:45;99439.88;;;23.11;75.80
6194;BME280;3130;41.564;23.280;2022-10-01T09:51:21;99418.38;;;23.33;74.66
6194;BME280;3130;41.564;23.280;2022-10-01T09:54:02;99406.66;;;23.53;72.64
6194;BME280;3130;41.564;23.280;2022-10-01T09:56:35;99476.84;;;24.07;71.44
6194;BME280;3130;41.564;23.280;2022-10-01T09:59:07;99426.88;;;24.00;70.51
6194;BME280;3130;41.564;23.280;2022-10-01T10:01:40;99425.22;;;24.15;68.52
6194;BME280;3130;41.564;23.280;2022-10-01T10:04:09;99402.16;;;24.11;67.74
6194;BME280;3130;41.564;23.280;2022-10-01T10:06:37;99471.28;;;24.42;67.83
6194;BME280;3130;41.564;23.280;2022-10-01T10:09:14;99480.94;;;24.41;69.04
6194;BME280;3130;41.564;23.280;2022-10-01T10:15:18;99412.63;;;24.03;69.57
6194;BME280;3130;41.564;23.280;2022-10-01T10:17:48;99366.44;;;23.86;69.00
6194;BME280;3130;41.564;23.280;2022-10-01T10:20:24;99312.06;;;23.56;69.07
6194;BME280;3130;41.564;23.280;2022-10-01T10:23:04;99403.94;;;24.10;69.52
6194;BME280;3130;41.564;23.280;2022-10-01T10:25:32;99408.03;;;24.21;68.36
6194;BME280;3130;41.564;23.280;2022-10-01T10:28:00;99418.19;;;24.32;67.24
6194;BME280;3130;41.564;23.280;2022-10-01T10:30:29;99419.97;;;24.47;66.39
6194;BME280;3130;41.564;23.280;2022-10-01T10:33:03;99433.06;;;24.63;65.46
6194;BME280;3130;41.564;23.280;2022-10-01T10:35:32;99338.91;;;24.14;65.14
6194;BME280;3130;41.564;23.280;2022-10-01T10:38:00;99419.28;;;24.69;64.68
6194;BME280;3130;41.564;23.280;2022-10-01T10:40:31;99368.38;;;24.32;63.58
6194;BME280;3130;41.564;23.280;2022-10-01T10:43:01;99342.34;;;24.14;64.90
6194;BME280;3130;41.564;23.280;2022-10-01T10:45:34;99415.72;;;24.54;65.11
6194;BME280;3130;41.564;23.280;2022-10-01T10:48:05;99398.03;;;24.48;65.45
6194;BME280;3130;41.564;23.280;2022-10-01T10:50:35;99398.16;;;24.54;66.32
6194;BME280;3130;41.564;23.280;2022-10-01T10:53:19;99343.47;;;24.28;66.34
6194;BME280;3130;41.564;23.280;2022-10-01T10:55:55;99395.22;;;24.57;65.76
6194;BME280;3130;41.564;23.280;2022-10-01T10:58:27;99304.00;;;24.13;65.68
6194;BME280;3130;41.564;23.280;2022-10-01T11:00:58;99315.09;;;24.31;65.30
6194;BME280;3130;41.564;23.280;2022-10-01T11:03:28;99328.81;;;24.57;65.57
6194;BME280;3130;41.564;23.280;2022-10-01T11:06:02;99339.97;;;24.59;65.95
6194;BME280;3130;41.564;23.280;2022-10-01T11:08:36;99352.25;;;24.58;66.89
6194;BME280;3130;41.564;23.280;2022-10-01T11:11:14;99346.50;;;24.63;66.49
6194;BME280;3130;41.564;23.280;2022-10-01T11:13:53;99350.41;;;24.67;67.20
6194;BME280;3130;41.564;23.280;2022-10-01T11:16:38;99301.47;;;24.36;68.09
6194;BME280;3130;41.564;23.280;2022-10-01T11:19:20;99329.47;;;24.59;68.97
6194;BME280;3130;41.564;23.280;2022-10-01T11:22:01;99266.34;;;24.06;71.04
6194;BME280;3130;41.564;23.280;2022-10-01T11:24:52;99284.19;;;24.11;71.45
6194;BME280;3130;41.564;23.280;2022-10-01T11:27:30;99192.56;;;23.55;73.92
6194;BME280;3130;41.564;23.280;2022-10-01T11:30:04;99268.13;;;24.14;74.09
6194;BME280;3130;41.564;23.280;2022-10-01T11:32:38;99246.19;;;24.15;74.41
6194;BME280;3130;41.564;23.280;2022-10-01T11:35:27;99245.53;;;24.05;74.62
6194;BME280;3130;41.564;23.280;2022-10-01T11:40:58;99149.25;;;23.99;74.78
6194;BME280;3130;41.564;23.280;2022-10-01T11:43:31;99178.88;;;24.38;74.22
6194;BME280;3130;41.564;23.280;2022-10-01T11:46:05;99175.94;;;24.49;74.36
6194;BME280;3130;41.564;23.280;2022-10-01T11:48:38;99168.63;;;24.58;73.70
6194;BME280;3130;41.564;23.280;2022-10-01T11:51:11;99185.44;;;24.72;73.02
6194;BME280;3130;41.564;23.280;2022-10-01T11:53:43;99111.06;;;24.35;71.51
6194;BME280;3130;41.564;23.280;2022-10-01T11:56:15;99126.22;;;24.55;69.11
6194;BME280;3130;41.564;23.280;2022-10-01T11:59:05;99075.34;;;24.34;67.00
6194;BME280;3130;41.564;23.280;2022-10-01T12:01:38;99122.53;;;24.64;67.16
6194;BME280;3130;41.564;23.280;2022-10-01T12:04:24;99108.75;;;24.62;67.68
6194;BME280;3130;41.564;23.280;2022-10-01T12:06:59;99154.94;;;25.16;68.65
6194;BME280;3130;41.564;23.280;2022-10-01T12:09:36;99092.88;;;25.00;66.76
6194;BME280;3130;41.564;23.280;2022-10-01T12:12:10;99114.59;;;25.31;66.90
6194;BME280;3130;41.564;23.280;2022-10-01T12:14:44;99106.38;;;25.34;66.68
6194;BME280;3130;41.564;23.280;2022-10-01T12:17:19;99041.94;;;25.09;66.53
6194;BME280;3130;41.564;23.280;2022-10-01T12:19:53;99066.69;;;25.29;65.98
6194;BME280;3130;41.564;23.280;2022-10-01T12:22:24;99069.78;;;25.33;64.25
6194;BME280;3130;41.564;23.280;2022-10-01T12:24:53;99039.88;;;25.34;64.72
6194;BME280;3130;41.564;23.280;2022-10-01T12:27:33;99034.84;;;25.47;63.56
6194;BME280;3130;41.564;23.280;2022-10-01T12:30:04;99064.06;;;25.72;61.14
6194;BME280;3130;41.564;23.280;2022-10-01T12:32:45;99053.09;;;25.83;61.61
6194;BME280;3130;41.564;23.280;2022-10-01T12:35:27;98996.47;;;25.66;61.23
6194;BME280;3130;41.564;23.280;2022-10-01T12:38:16;98986.22;;;25.71;60.47
6194;BME280;3130;41.564;23.280;2022-10-01T12:40:51;98954.28;;;25.53;60.55
6194;BME280;3130;41.564;23.280;2022-10-01T12:43:45;98925.59;;;25.38;60.00
6194;BME280;3130;41.564;23.280;2022-10-01T12:46:24;98979.41;;;25.77;61.04
6194;BME280;3130;41.564;23.280;2022-10-01T12:48:58;98912.22;;;25.33;61.43
6194;BME280;3130;41.564;23.280;2022-10-01T12:51:50;98976.34;;;25.73;61.38
6194;BME280;3130;41.564;23.280;2022-10-01T12:54:54;98983.59;;;25.86;60.68
6194;BME280;3130;41.564;23.280;2022-10-01T12:57:40;98984.66;;;25.91;60.98
6194;BME280;3130;41.564;23.280;2022-10-01T13:00:14;98955.94;;;25.75;60.23
6194;BME280;3130;41.564;23.280;2022-10-01T13:03:20;98981.28;;;25.97;59.66
6194;BME280;3130;41.564;23.280;2022-10-01T13:06:00;98964.88;;;25.95;60.26
6194;BME280;3130;41.564;23.280;2022-10-01T13:08:52;98850.19;;;25.32;60.23
6194;BME280;3130;41.564;23.280;2022-10-01T13:11:34;98962.13;;;26.03;60.09
6194;BME280;3130;41.564;23.280;2022-10-01T13:14:07;98956.13;;;26.09;57.97
6194;BME280;3130;41.564;23.280;2022-10-01T13:16:41;98848.53;;;25.66;58.25
6194;BME280;3130;41.564;23.280;2022-10-01T13:19:15;98912.19;;;26.31;58.22
6194;BME280;3130;41.564;23.280;2022-10-01T13:21:54;98927.19;;;26.30;57.48
6194;BME280;3130;41.564;23.280;2022-10-01T13:24:28;98872.94;;;26.02;57.05
6194;BME280;3130;41.564;23.280;2022-10-01T13:27:03;98863.63;;;25.99;57.69
6194;BME280;3130;41.564;23.280;2022-10-01T13:29:46;98885.06;;;26.24;55.96
6194;BME280;3130;41.564;23.280;2022-10-01T13:32:29;98934.75;;;26.61;55.27
6194;BME280;3130;41.564;23.280;2022-10-01T13:34:59;98907.34;;;26.55;54.60
6194;BME280;3130;41.564;23.280;2022-10-01T13:37:33;98873.06;;;26.42;53.88
6194;BME280;3130;41.564;23.280;2022-10-01T13:40:04;98931.03;;;26.89;53.75
6194;BME280;3130;41.564;23.280;2022-10-01T13:42:47;98848.63;;;26.48;53.58
6194;BME280;3130;41.564;23.280;2022-10-01T13:45:29;98830.50;;;26.32;53.92